createdAt,value
2022-10-05T00:01:19.467Z,7.70
2022-10-05T00:03:30.184Z,7.30
2022-10-05T00:05:39.016Z,9.33
2022-10-05T00:07:48.058Z,6.50
2022-10-05T00:09:59.513Z,6.60
2022-10-05T00:12:15.228Z,6.43
2022-10-05T00:14:25.978Z,5.00
2022-10-05T00:16:34.821Z,10.07
2022-10-05T00:18:45.087Z,5.90
2022-10-05T00:20:53.874Z,5.83
2022-10-05T00:23:04.740Z,7.30
2022-10-05T00:25:14.753Z,4.90
2022-10-05T00:27:25.620Z,4.67
2022-10-05T00:29:37.659Z,6.83
2022-10-05T00:31:48.957Z,6.50
2022-10-05T00:33:57.843Z,5.87
2022-10-05T00:36:08.621Z,8.33
2022-10-05T00:38:17.672Z,6.73
2022-10-05T00:40:33.311Z,6.57
2022-10-05T00:42:50.875Z,5.77
2022-10-05T00:45:03.328Z,6.73
2022-10-05T00:47:17.975Z,7.23
2022-10-05T00:49:32.103Z,6.17
2022-10-05T00:51:41.789Z,6.00
2022-10-05T00:53:53.524Z,6.67
2022-10-05T00:56:05.745Z,8.23
2022-10-05T00:58:24.589Z,8.10
2022-10-05T01:00:35.231Z,6.90
2022-10-05T01:02:53.417Z,3.77
2022-10-05T01:05:05.182Z,7.67
2022-10-05T01:07:17.904Z,8.07
2022-10-05T01:09:31.886Z,5.23
2022-10-05T01:11:45.418Z,7.87
2022-10-05T01:14:01.896Z,4.43
2022-10-05T01:16:12.818Z,8.37
2022-10-05T01:18:26.972Z,4.10
2022-10-05T01:20:43.000Z,8.73
2022-10-05T01:23:09.603Z,8.60
2022-10-05T01:25:23.685Z,7.73
2022-10-05T01:27:47.461Z,8.10
2022-10-05T01:30:01.744Z,8.40
2022-10-05T01:32:13.750Z,6.20
2022-10-05T01:34:25.662Z,8.67
2022-10-05T01:36:36.786Z,9.50
2022-10-05T01:38:50.953Z,9.67
2022-10-05T01:41:06.056Z,5.23
2022-10-05T01:43:20.712Z,6.13
2022-10-05T01:45:34.969Z,7.70
2022-10-05T01:47:46.214Z,6.27
2022-10-05T01:50:00.218Z,10.23
2022-10-05T01:52:17.337Z,7.77
2022-10-05T01:54:30.399Z,7.53
2022-10-05T01:56:41.196Z,6.67
2022-10-05T01:58:56.434Z,7.13
2022-10-05T02:01:09.456Z,9.63
2022-10-05T02:03:20.780Z,4.97
2022-10-05T02:05:34.072Z,7.30
2022-10-05T02:07:45.939Z,5.93
2022-10-05T02:09:57.208Z,4.77
2022-10-05T02:12:09.639Z,9.60
2022-10-05T02:14:20.287Z,9.30
2022-10-05T02:16:33.649Z,8.90
2022-10-05T02:18:46.827Z,6.63
2022-10-05T02:20:57.680Z,9.27
2022-10-05T02:23:10.206Z,7.37
2022-10-05T02:25:21.328Z,11.70
2022-10-05T02:27:32.344Z,6.93
2022-10-05T02:29:45.305Z,7.33
2022-10-05T02:31:57.604Z,8.40
2022-10-05T02:34:22.717Z,8.07
2022-10-05T02:36:34.504Z,8.50
2022-10-05T02:38:49.729Z,9.10
2022-10-05T02:41:03.983Z,6.53
2022-10-05T02:43:19.619Z,10.73
2022-10-05T02:45:32.234Z,7.63
2022-10-05T02:47:43.932Z,8.97
2022-10-05T02:49:54.627Z,5.03
2022-10-05T02:52:09.039Z,7.10
2022-10-05T02:54:23.993Z,10.33
2022-10-05T02:56:39.028Z,7.57
2022-10-05T02:58:52.696Z,8.63
2022-10-05T03:01:04.762Z,8.87
2022-10-05T03:03:18.530Z,8.40
2022-10-05T03:05:28.150Z,6.37
2022-10-05T03:07:39.932Z,9.80
2022-10-05T03:09:51.765Z,7.43
2022-10-05T03:12:05.089Z,7.70
2022-10-05T03:14:18.499Z,9.43
2022-10-05T03:16:35.872Z,9.30
2022-10-05T03:18:54.112Z,10.43
2022-10-05T03:21:08.395Z,10.97
2022-10-05T03:23:24.909Z,7.57
2022-10-05T03:25:47.668Z,7.10
2022-10-05T03:27:59.936Z,8.60
2022-10-05T03:30:13.847Z,8.60
2022-10-05T03:32:27.469Z,8.43
2022-10-05T03:34:41.257Z,8.93
2022-10-05T03:36:51.852Z,9.73
2022-10-05T03:39:03.854Z,4.90
2022-10-05T03:41:18.202Z,8.33
2022-10-05T03:43:33.809Z,6.40
2022-10-05T03:45:49.177Z,7.47
2022-10-05T03:48:03.476Z,8.67
2022-10-05T03:50:22.317Z,9.97
2022-10-05T03:52:34.251Z,12.27
2022-10-05T03:54:44.636Z,9.70
2022-10-05T03:56:55.895Z,8.63
2022-10-05T03:59:07.516Z,10.80
2022-10-05T04:01:18.600Z,8.73
2022-10-05T04:03:32.793Z,9.40
2022-10-05T04:05:45.319Z,6.50
2022-10-05T04:07:57.222Z,8.70
2022-10-05T04:10:08.078Z,9.40
2022-10-05T04:12:21.751Z,10.40
2022-10-05T04:14:34.361Z,7.40
2022-10-05T04:16:45.907Z,11.93
2022-10-05T04:19:00.302Z,11.07
2022-10-05T04:21:12.851Z,10.70
2022-10-05T04:23:23.632Z,8.67
2022-10-05T04:25:34.994Z,7.63
2022-10-05T04:27:45.823Z,8.00
2022-10-05T04:29:57.855Z,11.57
2022-10-05T04:32:14.333Z,5.70
2022-10-05T04:34:32.623Z,9.07
2022-10-05T04:36:47.217Z,8.40
2022-10-05T04:39:05.443Z,8.37
2022-10-05T04:41:22.030Z,9.27
2022-10-05T04:43:35.909Z,10.07
2022-10-05T04:45:54.338Z,6.30
2022-10-05T04:48:13.834Z,7.50
2022-10-05T04:50:28.344Z,5.97
2022-10-05T04:52:41.961Z,10.13
2022-10-05T04:54:55.393Z,6.53
2022-10-05T04:57:05.459Z,7.10
2022-10-05T04:59:35.976Z,7.87
2022-10-05T05:01:50.076Z,8.33
2022-10-05T05:04:14.573Z,10.80
2022-10-05T05:06:29.581Z,5.40
2022-10-05T05:08:43.969Z,8.90
2022-10-05T05:10:56.124Z,6.10
2022-10-05T05:13:13.155Z,8.97
2022-10-05T05:15:39.406Z,7.10
2022-10-05T05:17:57.600Z,10.60
2022-10-05T05:20:14.180Z,5.43
2022-10-05T05:22:27.393Z,8.43
2022-10-05T05:24:40.824Z,10.77
2022-10-05T05:27:07.712Z,15.50
2022-10-05T05:29:20.088Z,12.13
2022-10-05T05:31:32.191Z,6.90
2022-10-05T05:33:48.974Z,8.93
2022-10-05T05:36:13.480Z,10.90
2022-10-05T05:38:27.312Z,6.47
2022-10-05T05:40:44.811Z,11.07
2022-10-05T05:42:57.321Z,10.57
2022-10-05T05:45:09.957Z,6.00
2022-10-05T05:47:21.612Z,6.97
2022-10-05T05:49:34.572Z,8.60
2022-10-05T05:51:46.626Z,8.70
2022-10-05T05:53:57.388Z,5.87
2022-10-05T05:56:10.563Z,7.57
2022-10-05T05:58:22.742Z,8.97
2022-10-05T06:00:33.768Z,7.63
2022-10-05T06:02:44.131Z,8.10
2022-10-05T06:04:54.961Z,7.13
2022-10-05T06:07:05.457Z,9.23
2022-10-05T06:09:18.543Z,7.23
2022-10-05T06:11:30.525Z,10.00
2022-10-05T06:13:41.053Z,9.93
2022-10-05T06:15:53.324Z,8.80
2022-10-05T06:18:05.157Z,8.93
2022-10-05T06:20:18.990Z,6.40
2022-10-05T06:22:31.661Z,6.07
2022-10-05T06:24:43.156Z,7.53
2022-10-05T06:27:04.932Z,7.03
2022-10-05T06:29:16.983Z,10.33
2022-10-05T06:31:33.931Z,8.77
2022-10-05T06:33:49.222Z,9.90
2022-10-05T06:36:05.243Z,5.20
2022-10-05T06:38:21.770Z,6.33
2022-10-05T06:40:37.636Z,9.07
2022-10-05T06:42:51.778Z,11.03
2022-10-05T06:45:04.082Z,7.40
2022-10-05T06:47:19.097Z,8.90
2022-10-05T06:49:29.679Z,9.83
2022-10-05T06:51:42.696Z,9.53
2022-10-05T06:54:00.987Z,7.97
2022-10-05T06:56:11.860Z,10.87
2022-10-05T06:58:28.617Z,10.40
2022-10-05T07:00:41.989Z,5.03
2022-10-05T07:02:53.958Z,8.93
2022-10-05T07:05:14.279Z,10.97
2022-10-05T07:07:26.323Z,7.93
2022-10-05T07:09:40.115Z,6.90
2022-10-05T07:12:03.677Z,6.83
2022-10-05T07:14:22.516Z,11.80
2022-10-05T07:16:39.213Z,8.93
2022-10-05T07:18:57.587Z,7.97
2022-10-05T07:21:10.759Z,11.20
2022-10-05T07:23:26.678Z,7.17
2022-10-05T07:25:38.859Z,6.97
2022-10-05T07:27:51.831Z,8.77
2022-10-05T07:30:03.532Z,6.83
2022-10-05T07:32:18.057Z,6.43
2022-10-05T07:34:30.865Z,10.30
2022-10-05T07:37:01.814Z,8.90
2022-10-05T07:39:12.705Z,7.40
2022-10-05T07:41:24.542Z,9.53
2022-10-05T07:44:00.537Z,7.47
2022-10-05T07:46:10.919Z,9.60
2022-10-05T07:48:22.524Z,12.53
2022-10-05T07:50:33.686Z,8.07
2022-10-05T07:52:45.168Z,7.33
2022-10-05T07:54:59.643Z,5.57
2022-10-05T07:57:12.669Z,7.00
2022-10-05T07:59:26.573Z,6.57
2022-10-05T08:01:37.445Z,7.20
2022-10-05T08:03:49.885Z,9.67
2022-10-05T08:06:00.571Z,7.73
2022-10-05T08:08:16.784Z,9.67
2022-10-05T08:10:32.328Z,11.00
2022-10-05T08:12:46.776Z,7.73
2022-10-05T08:14:57.737Z,8.50
2022-10-05T08:17:13.796Z,8.30
2022-10-05T08:19:26.101Z,7.70
2022-10-05T08:21:37.711Z,8.57
2022-10-05T08:23:49.749Z,6.40
2022-10-05T08:26:07.408Z,10.63
2022-10-05T08:28:19.856Z,7.00
2022-10-05T08:30:28.961Z,8.73
2022-10-05T08:32:41.235Z,5.93
2022-10-05T08:34:52.122Z,7.70
2022-10-05T08:37:04.498Z,8.60
2022-10-05T08:39:16.640Z,6.77
2022-10-05T08:41:43.951Z,6.87
2022-10-05T08:44:07.617Z,7.60
2022-10-05T08:46:27.482Z,6.63
2022-10-05T08:48:56.470Z,8.23
2022-10-05T08:51:24.102Z,6.07
2022-10-05T08:53:47.201Z,5.40
2022-10-05T08:56:04.241Z,9.00
2022-10-05T08:58:31.480Z,4.77
2022-10-05T09:00:47.200Z,5.63
2022-10-05T09:03:16.615Z,5.03
2022-10-05T09:05:40.988Z,4.10
2022-10-05T09:08:04.377Z,5.90
2022-10-05T09:10:31.818Z,5.57
2022-10-05T09:12:48.661Z,4.93
2022-10-05T09:15:24.765Z,4.07
2022-10-05T09:17:43.665Z,4.33
2022-10-05T09:20:12.370Z,6.90
2022-10-05T09:22:31.613Z,4.70
2022-10-05T09:24:50.856Z,8.53
2022-10-05T09:27:02.498Z,8.87
2022-10-05T09:29:22.457Z,6.97
2022-10-05T09:31:42.098Z,5.40
2022-10-05T09:34:01.799Z,3.73
2022-10-05T09:36:19.944Z,3.77
2022-10-05T09:38:33.648Z,4.77
2022-10-05T09:41:00.729Z,6.07
2022-10-05T09:43:21.292Z,5.03
2022-10-05T09:45:44.058Z,5.07
2022-10-05T09:47:59.887Z,9.40
2022-10-05T09:50:20.743Z,4.60
2022-10-05T09:52:47.786Z,7.53
2022-10-05T09:55:15.266Z,6.53
2022-10-05T09:59:49.764Z,4.33
2022-10-05T10:02:17.307Z,4.57
2022-10-05T10:04:37.824Z,7.20
2022-10-05T10:07:05.145Z,3.70
2022-10-05T10:09:22.267Z,4.40
2022-10-05T10:11:42.983Z,7.57
2022-10-05T10:14:16.228Z,5.07
2022-10-05T10:16:34.152Z,4.33
2022-10-05T10:18:48.967Z,4.87
2022-10-05T10:21:04.894Z,7.10
2022-10-05T10:23:22.999Z,2.93
2022-10-05T10:25:40.373Z,4.23
2022-10-05T10:27:56.204Z,4.37
2022-10-05T10:30:19.939Z,4.63
2022-10-05T10:32:43.373Z,4.57
2022-10-05T10:35:08.249Z,5.20
2022-10-05T10:37:34.584Z,3.27
2022-10-05T10:39:50.866Z,3.70
2022-10-05T10:42:06.849Z,4.73
2022-10-05T10:44:23.054Z,3.23
2022-10-05T10:46:37.064Z,3.83
2022-10-05T10:48:51.535Z,4.67
2022-10-05T10:51:13.845Z,4.80
2022-10-05T10:53:34.863Z,4.37
2022-10-05T10:55:49.064Z,3.83
2022-10-05T10:58:20.514Z,3.23
2022-10-05T11:00:43.671Z,2.47
2022-10-05T11:03:13.550Z,5.63
2022-10-05T11:05:29.911Z,3.50
2022-10-05T11:07:57.172Z,2.20
2022-10-05T11:10:16.410Z,4.17
2022-10-05T11:12:44.471Z,2.70
2022-10-05T11:15:01.744Z,3.10
2022-10-05T11:17:33.907Z,2.73
2022-10-05T11:20:09.274Z,2.37
2022-10-05T11:22:36.067Z,3.87
2022-10-05T11:24:50.370Z,3.33
2022-10-05T11:27:14.157Z,5.30
2022-10-05T11:29:37.944Z,3.10
2022-10-05T11:32:07.331Z,4.17
2022-10-05T11:34:34.425Z,3.23
2022-10-05T11:36:53.926Z,2.13
2022-10-05T11:39:26.600Z,4.17
2022-10-05T11:41:44.827Z,3.57
2022-10-05T11:44:07.877Z,2.27
2022-10-05T11:46:20.426Z,5.80
2022-10-05T11:48:40.841Z,4.30
2022-10-05T11:50:54.438Z,3.07
2022-10-05T11:53:08.199Z,4.40
2022-10-05T11:55:19.700Z,3.13
2022-10-05T11:57:33.330Z,2.30
2022-10-05T11:59:44.777Z,3.83
2022-10-05T12:01:57.209Z,2.40
2022-10-05T12:04:12.922Z,3.80
2022-10-05T12:06:25.888Z,2.17
2022-10-05T12:08:40.283Z,2.90
2022-10-05T12:10:54.217Z,4.37
2022-10-05T12:13:20.812Z,2.10
2022-10-05T12:15:31.934Z,2.10
2022-10-05T12:17:44.448Z,2.07
2022-10-05T12:19:55.658Z,2.73
2022-10-05T12:22:11.112Z,4.37
2022-10-05T12:24:26.806Z,2.93
2022-10-05T12:26:38.273Z,3.60
2022-10-05T12:28:48.954Z,2.40
2022-10-05T12:31:02.408Z,2.27
2022-10-05T12:33:14.469Z,3.97
2022-10-05T12:35:43.926Z,2.50
2022-10-05T12:37:56.629Z,1.97
2022-10-05T12:40:13.890Z,2.10
2022-10-05T12:42:27.717Z,2.37
2022-10-05T12:44:49.331Z,2.63
2022-10-05T12:47:03.619Z,2.00
2022-10-05T12:49:24.582Z,1.90
2022-10-05T12:51:37.968Z,1.80
2022-10-05T12:53:51.187Z,2.63
2022-10-05T12:56:03.668Z,2.33
2022-10-05T12:58:20.200Z,2.37
2022-10-05T13:00:30.446Z,1.77
2022-10-05T13:02:42.463Z,2.20
2022-10-05T13:04:53.990Z,1.90
2022-10-05T13:07:20.444Z,1.83
2022-10-05T13:09:35.235Z,1.80
2022-10-05T13:11:49.805Z,1.77
2022-10-05T13:14:03.789Z,4.20
2022-10-05T13:16:18.565Z,3.87
2022-10-05T13:18:31.652Z,2.00
2022-10-05T13:20:44.071Z,1.90
2022-10-05T13:22:57.464Z,2.20
2022-10-05T13:25:11.525Z,4.00
2022-10-05T13:27:24.276Z,1.97
2022-10-05T13:29:34.510Z,1.83
2022-10-05T13:31:45.533Z,3.90
2022-10-05T13:34:03.605Z,2.83
2022-10-05T13:36:16.433Z,2.67
2022-10-05T13:38:34.270Z,4.13
2022-10-05T13:40:48.469Z,3.00
2022-10-05T13:43:03.035Z,3.87
2022-10-05T13:45:15.488Z,2.20
2022-10-05T13:47:30.840Z,2.23
2022-10-05T13:49:43.755Z,2.90
2022-10-05T13:51:56.427Z,5.20
2022-10-05T13:54:07.617Z,4.63
2022-10-05T13:56:19.510Z,6.10
2022-10-05T13:58:34.855Z,3.30
2022-10-05T14:00:48.520Z,3.00
2022-10-05T14:02:58.606Z,4.00
2022-10-05T14:05:17.568Z,6.27
2022-10-05T14:07:31.820Z,3.27
2022-10-05T14:09:50.459Z,4.80
2022-10-05T14:12:14.194Z,3.50
2022-10-05T14:14:28.825Z,4.07
2022-10-05T14:16:46.851Z,3.50
2022-10-05T14:18:57.509Z,3.70
2022-10-05T14:21:17.905Z,6.03
2022-10-05T14:23:27.801Z,3.00
2022-10-05T14:25:50.439Z,3.83
2022-10-05T14:28:06.842Z,3.30
2022-10-05T14:30:24.550Z,4.90
2022-10-05T14:32:34.556Z,4.13
2022-10-05T14:34:45.313Z,5.67
2022-10-05T14:36:57.694Z,4.17
2022-10-05T14:39:06.624Z,4.37
2022-10-05T14:41:18.929Z,5.17
2022-10-05T14:43:27.920Z,4.47
2022-10-05T14:45:37.995Z,5.23
2022-10-05T14:47:49.560Z,3.60
2022-10-05T14:50:14.218Z,4.00
2022-10-05T14:52:32.634Z,3.83
2022-10-05T14:54:49.297Z,4.17
2022-10-05T14:57:06.522Z,5.20
2022-10-05T14:59:23.286Z,3.63
2022-10-05T15:01:35.582Z,6.03
2022-10-05T15:03:48.204Z,5.13
2022-10-05T15:05:59.294Z,4.23
2022-10-05T15:08:18.230Z,5.33
2022-10-05T15:10:31.603Z,3.40
2022-10-05T15:12:42.926Z,5.37
2022-10-05T15:15:03.178Z,3.60
2022-10-05T15:17:18.395Z,4.23
2022-10-05T15:19:31.689Z,5.03
2022-10-05T15:21:48.436Z,4.30
2022-10-05T15:23:59.406Z,3.50
2022-10-05T15:26:18.786Z,4.93
2022-10-05T15:28:36.119Z,3.43
2022-10-05T15:30:49.597Z,4.17
2022-10-05T15:33:19.721Z,5.17
2022-10-05T15:35:36.914Z,3.20
2022-10-05T15:37:47.774Z,4.77
2022-10-05T15:39:57.855Z,5.07
2022-10-05T15:42:09.272Z,3.13
2022-10-05T15:44:24.287Z,3.13
2022-10-05T15:46:35.530Z,4.43
2022-10-05T15:48:48.572Z,2.53
2022-10-05T15:51:02.791Z,5.70
2022-10-05T15:53:18.316Z,5.13
2022-10-05T15:55:36.646Z,2.80
2022-10-05T15:57:48.382Z,3.60
2022-10-05T16:00:04.338Z,3.37
2022-10-05T16:02:17.758Z,2.63
2022-10-05T16:04:30.671Z,5.53
2022-10-05T16:07:02.104Z,4.10
2022-10-05T16:09:18.114Z,3.23
2022-10-05T16:11:32.696Z,4.07
2022-10-05T16:13:46.535Z,2.70
2022-10-05T16:15:58.259Z,3.30
2022-10-05T16:18:23.112Z,4.43
2022-10-05T16:20:41.163Z,2.83
2022-10-05T16:22:59.798Z,2.73
2022-10-05T16:25:13.403Z,3.70
2022-10-05T16:27:24.927Z,4.33
2022-10-05T16:29:37.048Z,4.87
2022-10-05T16:31:56.401Z,4.90
2022-10-05T16:34:10.712Z,5.00
2022-10-05T16:36:23.265Z,3.77
2022-10-05T16:38:38.802Z,5.97
2022-10-05T16:40:52.479Z,3.90
2022-10-05T16:43:06.972Z,4.17
2022-10-05T16:45:22.643Z,3.17
2022-10-05T16:47:36.791Z,4.77
2022-10-05T16:49:48.924Z,5.73
2022-10-05T16:51:59.776Z,7.67
2022-10-05T16:54:18.176Z,3.30
2022-10-05T16:56:29.108Z,4.57
2022-10-05T16:58:44.101Z,5.17
2022-10-05T17:00:58.623Z,3.50
2022-10-05T17:03:13.103Z,6.27
2022-10-05T17:05:31.783Z,4.47
2022-10-05T17:07:47.322Z,5.77
2022-10-05T17:10:15.111Z,6.90
2022-10-05T17:12:31.310Z,11.47
2022-10-05T17:14:42.622Z,4.90
2022-10-05T17:16:57.308Z,3.70
2022-10-05T17:19:23.717Z,5.37
2022-10-05T17:21:36.233Z,4.03
2022-10-05T17:23:54.214Z,3.77
2022-10-05T17:26:10.956Z,4.87
2022-10-05T17:28:24.798Z,4.63
2022-10-05T17:30:51.853Z,5.70
2022-10-05T17:33:04.926Z,5.27
2022-10-05T17:35:20.627Z,6.20
2022-10-05T17:37:37.469Z,3.93
2022-10-05T17:39:49.262Z,5.03
2022-10-05T17:42:19.612Z,3.37
2022-10-05T17:44:28.496Z,5.43
2022-10-05T17:46:45.729Z,4.37
2022-10-05T17:49:09.445Z,5.07
2022-10-05T17:51:37.248Z,3.53
2022-10-05T17:54:06.795Z,3.30
2022-10-05T17:56:15.623Z,3.87
2022-10-05T17:58:43.360Z,5.87
2022-10-05T18:01:13.057Z,6.27
2022-10-05T18:03:39.154Z,4.40
2022-10-05T18:05:48.083Z,4.10
2022-10-05T18:08:16.702Z,3.20
2022-10-05T18:10:29.035Z,5.63
2022-10-05T18:12:46.828Z,3.63
2022-10-05T18:15:00.756Z,5.87
2022-10-05T18:17:13.601Z,5.27
2022-10-05T18:19:24.881Z,4.97
2022-10-05T18:21:38.168Z,4.03
2022-10-05T18:23:51.337Z,3.90
2022-10-05T18:26:06.460Z,4.27
2022-10-05T18:28:20.508Z,4.40
2022-10-05T18:30:32.738Z,3.93
2022-10-05T18:32:49.514Z,4.03
2022-10-05T18:35:02.563Z,7.07
2022-10-05T18:37:18.636Z,5.10
2022-10-05T18:39:38.784Z,3.27
2022-10-05T18:41:54.526Z,3.87
2022-10-05T18:44:09.430Z,4.67
2022-10-05T18:46:24.946Z,3.20
2022-10-05T18:48:39.545Z,4.97
2022-10-05T18:50:54.634Z,4.00
2022-10-05T18:53:10.456Z,6.10
2022-10-05T18:55:22.999Z,2.77
2022-10-05T18:57:49.994Z,6.37
2022-10-05T19:00:02.627Z,3.97
2022-10-05T19:02:14.939Z,2.60
2022-10-05T19:04:29.712Z,2.80
2022-10-05T19:06:42.496Z,5.03
2022-10-05T19:08:57.255Z,2.87
2022-10-05T19:11:14.004Z,2.90
2022-10-05T19:13:30.177Z,6.40
2022-10-05T19:15:47.092Z,3.70
2022-10-05T19:18:04.600Z,4.07
2022-10-05T19:20:20.631Z,3.30
2022-10-05T19:22:36.840Z,2.97
2022-10-05T19:24:50.700Z,2.53
2022-10-05T19:27:04.381Z,3.90
2022-10-05T19:29:17.799Z,2.63
2022-10-05T19:31:31.219Z,4.37
2022-10-05T19:33:47.336Z,2.67
2022-10-05T19:36:04.051Z,2.80
2022-10-05T19:38:21.649Z,4.53
2022-10-05T19:40:32.495Z,2.33
2022-10-05T19:42:47.448Z,5.30
2022-10-05T19:45:03.186Z,2.83
2022-10-05T19:47:18.776Z,2.20
2022-10-05T19:49:43.154Z,2.00
2022-10-05T19:51:53.576Z,3.90
2022-10-05T19:54:04.820Z,2.70
2022-10-05T19:56:20.506Z,3.47
2022-10-05T19:58:30.183Z,3.60
2022-10-05T20:00:39.182Z,1.60
2022-10-05T20:02:48.119Z,2.17
2022-10-05T20:05:07.395Z,2.60
2022-10-05T20:07:17.083Z,2.10
2022-10-05T20:09:26.942Z,4.27
2022-10-05T20:11:50.149Z,2.67
2022-10-05T20:14:17.082Z,2.60
2022-10-05T20:16:47.541Z,1.97
2022-10-05T20:19:13.757Z,2.00
2022-10-05T20:21:45.340Z,3.33
2022-10-05T20:24:07.501Z,3.03
2022-10-05T20:26:48.160Z,3.93
2022-10-05T20:28:57.944Z,3.83
2022-10-05T20:31:07.895Z,2.33
2022-10-05T20:33:16.474Z,3.10
2022-10-05T20:35:26.311Z,1.83
2022-10-05T20:37:34.971Z,2.10
2022-10-05T20:39:43.415Z,1.90
2022-10-05T20:41:51.831Z,2.13
2022-10-05T20:44:01.677Z,2.70
2022-10-05T20:46:10.102Z,4.10
2022-10-05T20:48:18.727Z,3.90
2022-10-05T20:50:27.604Z,2.70
2022-10-05T20:52:37.159Z,3.73
2022-10-05T20:56:59.724Z,6.17
2022-10-05T20:59:09.597Z,2.23
2022-10-05T21:01:19.033Z,2.83
2022-10-05T21:03:27.877Z,2.00
2022-10-05T21:05:36.414Z,2.43
2022-10-05T21:07:44.825Z,4.17
2022-10-05T21:09:53.880Z,2.37
2022-10-05T21:12:03.214Z,2.10
2022-10-05T21:14:13.776Z,4.93
2022-10-05T21:16:23.071Z,3.27
2022-10-05T21:18:32.182Z,2.73
2022-10-05T21:20:40.644Z,2.50
2022-10-05T21:22:49.160Z,2.33
2022-10-05T21:24:58.508Z,2.70
2022-10-05T21:27:13.509Z,2.67
2022-10-05T21:29:23.479Z,2.87
2022-10-05T21:31:32.406Z,2.37
2022-10-05T21:33:40.966Z,2.13
2022-10-05T21:35:49.879Z,3.07
2022-10-05T21:37:58.385Z,3.33
2022-10-05T21:40:07.327Z,3.63
2022-10-05T21:42:15.826Z,4.33
2022-10-05T21:44:25.909Z,2.10
2022-10-05T21:46:36.915Z,7.03
2022-10-05T21:48:45.953Z,1.83
2022-10-05T21:50:54.453Z,3.10
2022-10-05T21:53:06.019Z,3.17
2022-10-05T21:55:14.670Z,1.80
2022-10-05T21:57:23.272Z,1.90
2022-10-05T21:59:34.856Z,3.30
2022-10-05T22:01:43.393Z,7.13
2022-10-05T22:03:51.817Z,2.53
2022-10-05T22:06:00.335Z,1.70
2022-10-05T22:08:08.798Z,2.27
2022-10-05T22:10:17.347Z,2.33
2022-10-05T22:12:26.503Z,2.67
2022-10-05T22:14:36.475Z,2.10
2022-10-05T22:16:45.911Z,3.93
2022-10-05T22:18:57.483Z,2.17
2022-10-05T22:21:06.352Z,2.13
2022-10-05T22:23:15.824Z,2.13
2022-10-05T22:25:24.607Z,2.43
2022-10-05T22:27:34.257Z,3.53
2022-10-05T22:29:44.618Z,2.53
2022-10-05T22:31:53.248Z,3.30
2022-10-05T22:34:01.805Z,3.10
2022-10-05T22:36:11.420Z,2.20
2022-10-05T22:38:19.908Z,2.37
2022-10-05T22:40:28.661Z,2.60
2022-10-05T22:42:37.638Z,2.20
2022-10-05T22:44:49.634Z,4.07
2022-10-05T22:46:58.056Z,2.13
2022-10-05T22:49:06.860Z,2.33
2022-10-05T22:51:15.363Z,3.50
2022-10-05T22:53:23.887Z,5.63
2022-10-05T22:55:32.463Z,3.13
2022-10-05T22:57:41.371Z,2.20
2022-10-05T22:59:51.286Z,2.10
2022-10-05T23:02:00.135Z,2.97
2022-10-05T23:04:08.958Z,3.30
2022-10-05T23:06:18.385Z,2.40
2022-10-05T23:08:27.513Z,2.23
2022-10-05T23:10:36.244Z,2.67
2022-10-05T23:12:45.397Z,2.23
2022-10-05T23:14:55.269Z,2.13
2022-10-05T23:17:03.808Z,3.17
2022-10-05T23:19:14.392Z,3.43
2022-10-05T23:21:24.058Z,2.17
2022-10-05T23:23:32.495Z,3.20
2022-10-05T23:25:40.957Z,2.93
2022-10-05T23:27:49.616Z,4.23
2022-10-05T23:29:59.455Z,4.90
2022-10-05T23:32:08.029Z,4.83
2022-10-05T23:34:16.472Z,4.77
2022-10-05T23:36:25.791Z,2.60
2022-10-05T23:38:34.574Z,3.03
2022-10-05T23:40:47.497Z,2.10
2022-10-05T23:42:56.205Z,6.17
2022-10-05T23:45:06.458Z,2.20
2022-10-05T23:47:14.873Z,2.43
2022-10-05T23:49:23.382Z,2.97
2022-10-05T23:51:31.895Z,3.40
2022-10-05T23:53:40.566Z,2.40
2022-10-05T23:55:51.180Z,2.10
2022-10-05T23:57:59.580Z,2.70
